Briefing drone pour Sainte-maure-de-touraine

Rechercher une autre localisation

Conditions de vol :


Nous sommes le : Mardi 13 avril 2021
Il est 16:14 UTC (18:14 LT)

Lever de soleil : 04:46 UTC (06:46 LT)
Coucher de soleil : 19:09 UTC (21:09 LT)

Météo

L'essentiel des conditions de vol

VIGILANCE MÉTÉO FRANCE - Indre-et-Loire (37)
Pas de vigilances particulieres
METAR de LFOT
LFOT 131600Z AUTO 06010KT 360V100 CAVOK 11/M04 Q1029 NOSIG

Date d'émission: 13/04/2021
Heure d'émission: 16:00 UTC
Vent: 060° (variable du 360° au 100°) pour 10 KT (19 km/h)
Visibilité horizontale: > 10 km
Plafond : Plafond et visibilité OK (CAVOK)
Température: 11 °C
Point de rosée: -4 °C
Humidité: 35%
Pression (QNH): 1029 hPa
Conditions: Pas de changement dans les 2 heures (NOSIG)
TAF de LFOT
LFOT 131100Z 1312/1412 06010KT CAVOK

Conditions prévues :

Heure d'émission : Bulletin éffectué le 13 à 12:00 UTC
Prévision : Valide du 13 a 12:00 UTC au 14 a 12:00 UTC
Vent : 60° pour 10 KT (19 km/h)
Visibilité : > 10 km
WEBCAM POUR SAINTE-MAURE-DE-TOURAINE

Réglementation

Voler en sécurité

CARTES AERONAUTIQUE 1/500.000
CARTES VAC (LFOT)
SUP AIP




Chargement des AIP...
NOTAM (SAINTE-MAURE-DE-TOURAINE + Terrain à proximité / FIR )




Chargement des NOTAMS...
CONTACT PREFECTURE 37
Indre-et-Loire (37) : pref-drones@indre-et-loire.gouv.fr


Avertissement : Les données mises à disposition sont indicatives. Oxygène Drone ne pourra être tenu responsable de dégâts causés aux biens et aux personnes.